createdAt,value
2018-01-16T00:03:02.280Z,71.50
2018-01-16T00:05:30.718Z,71.50
2018-01-16T00:07:58.271Z,71.40
2018-01-16T00:10:26.243Z,71.50
2018-01-16T00:12:53.785Z,71.30
2018-01-16T00:15:21.367Z,71.50
2018-01-16T00:17:48.959Z,71.50
2018-01-16T00:20:16.512Z,71.60
2018-01-16T00:22:45.769Z,71.60
2018-01-16T00:25:13.308Z,71.70
2018-01-16T00:27:40.923Z,71.70
2018-01-16T00:30:08.461Z,71.70
2018-01-16T00:32:36.005Z,71.70
2018-01-16T00:35:03.596Z,71.70
2018-01-16T00:37:31.136Z,71.80
2018-01-16T00:39:58.710Z,72.10
2018-01-16T00:42:26.244Z,72.20
2018-01-16T00:44:53.831Z,72.30
2018-01-16T00:47:21.375Z,72.40
2018-01-16T00:49:49.238Z,72.30
2018-01-16T00:52:16.765Z,72.30
2018-01-16T00:54:44.314Z,72.20
2018-01-16T00:57:11.873Z,72.20
2018-01-16T00:59:39.408Z,72.30
2018-01-16T01:02:06.977Z,72.20
2018-01-16T01:04:35.279Z,72.40
2018-01-16T01:07:03.271Z,72.40
2018-01-16T01:09:30.822Z,72.60
2018-01-16T01:11:58.357Z,72.70
2018-01-16T01:14:25.944Z,72.90
2018-01-16T01:16:54.092Z,73.10
2018-01-16T01:19:21.670Z,73.40
2018-01-16T01:21:49.201Z,73.80
2018-01-16T01:24:16.811Z,74.40
2018-01-16T01:26:44.370Z,74.50
2018-01-16T01:29:11.980Z,74.90
2018-01-16T01:31:39.511Z,75.30
2018-01-16T01:34:07.049Z,76.00
2018-01-16T01:36:34.779Z,76.50
2018-01-16T01:39:02.311Z,76.90
2018-01-16T01:41:30.653Z,77.20
2018-01-16T01:43:58.211Z,77.20
2018-01-16T01:46:25.797Z,77.30
2018-01-16T01:49:05.256Z,77.80
2018-01-16T01:51:32.852Z,77.80
2018-01-16T01:54:00.386Z,78.00
2018-01-16T01:56:27.933Z,79.10
2018-01-16T01:58:55.513Z,78.00
2018-01-16T02:01:23.052Z,78.60
2018-01-16T02:03:50.632Z,78.60
2018-01-16T02:06:18.169Z,78.50
2018-01-16T02:08:46.072Z,78.60
2018-01-16T02:11:13.726Z,78.50
2018-01-16T02:13:41.270Z,78.60
2018-01-16T02:16:08.838Z,78.60
2018-01-16T02:18:36.377Z,78.60
2018-01-16T02:21:03.956Z,78.60
2018-01-16T02:23:31.510Z,78.50
2018-01-16T02:25:59.098Z,78.00
2018-01-16T02:28:26.645Z,78.50
2018-01-16T02:30:54.189Z,78.60
2018-01-16T02:33:21.779Z,78.50
2018-01-16T02:35:49.327Z,78.50
2018-01-16T02:38:16.908Z,78.30
2018-01-16T02:40:44.430Z,78.60
2018-01-16T02:43:20.870Z,78.60
2018-01-16T02:45:48.408Z,78.50
2018-01-16T02:48:16.465Z,78.50
2018-01-16T02:50:43.997Z,77.90
2018-01-16T02:53:11.542Z,77.60
2018-01-16T02:55:39.129Z,77.60
2018-01-16T02:58:06.705Z,77.40
2018-01-16T03:00:34.292Z,77.40
2018-01-16T03:03:01.829Z,77.10
2018-01-16T03:05:30.074Z,77.00
2018-01-16T03:07:57.614Z,76.90
2018-01-16T03:10:25.174Z,76.80
2018-01-16T03:12:52.909Z,77.00
2018-01-16T03:15:21.333Z,76.80
2018-01-16T03:17:48.909Z,76.80
2018-01-16T03:20:16.448Z,76.80
2018-01-16T03:22:44.525Z,76.40
2018-01-16T03:25:12.052Z,76.30
2018-01-16T03:27:39.576Z,76.10
2018-01-16T03:30:07.142Z,76.10
2018-01-16T03:32:34.673Z,76.10
2018-01-16T03:35:02.246Z,76.30
2018-01-16T03:37:29.902Z,76.60
2018-01-16T03:39:57.644Z,75.90
2018-01-16T03:42:25.209Z,75.70
2018-01-16T03:44:52.741Z,75.50
2018-01-16T03:47:20.321Z,75.30
2018-01-16T03:49:47.865Z,75.30
2018-01-16T03:52:15.622Z,75.10
2018-01-16T03:54:43.167Z,75.20
2018-01-16T03:57:11.273Z,75.10
2018-01-16T03:59:38.816Z,75.00
2018-01-16T04:02:06.355Z,75.00
2018-01-16T04:04:34.015Z,74.90
2018-01-16T04:07:01.741Z,75.00
2018-01-16T04:09:29.332Z,75.10
2018-01-16T04:11:58.228Z,75.20
2018-01-16T04:14:25.801Z,75.40
2018-01-16T04:16:53.336Z,75.30
2018-01-16T04:19:21.385Z,75.20
2018-01-16T04:21:48.911Z,75.10
2018-01-16T04:24:16.444Z,75.20
2018-01-16T04:26:44.030Z,75.20
2018-01-16T04:29:11.571Z,75.10
2018-01-16T04:31:39.173Z,74.90
2018-01-16T04:34:07.040Z,75.00
2018-01-16T04:36:34.610Z,75.00
2018-01-16T04:39:02.158Z,74.90
2018-01-16T04:41:30.224Z,75.00
2018-01-16T04:43:57.759Z,75.40
2018-01-16T04:46:25.285Z,75.60
2018-01-16T04:48:52.875Z,76.50
2018-01-16T04:51:20.405Z,76.10
2018-01-16T04:53:48.140Z,76.30
2018-01-16T04:56:15.694Z,76.50
2018-01-16T04:58:43.628Z,76.40
2018-01-16T05:01:11.175Z,76.40
2018-01-16T05:03:38.697Z,76.50
2018-01-16T05:06:07.172Z,76.50
2018-01-16T05:08:35.259Z,76.50
2018-01-16T05:11:02.844Z,76.60
2018-01-16T05:13:30.384Z,76.90
2018-01-16T05:15:58.294Z,76.90
2018-01-16T05:18:25.847Z,77.20
2018-01-16T05:20:53.376Z,77.20
2018-01-16T05:23:20.966Z,77.30
2018-01-16T05:25:48.505Z,77.50
2018-01-16T05:28:16.091Z,77.60
2018-01-16T05:30:43.628Z,77.60
2018-01-16T05:33:11.203Z,77.80
2018-01-16T05:35:38.746Z,77.90
2018-01-16T05:38:06.329Z,77.60
2018-01-16T05:40:33.848Z,77.70
2018-01-16T05:43:01.380Z,77.60
2018-01-16T05:45:28.959Z,77.50
2018-01-16T05:47:57.260Z,77.60
2018-01-16T05:50:24.991Z,77.70
2018-01-16T05:52:52.524Z,78.10
2018-01-16T05:55:20.107Z,77.50
2018-01-16T05:57:47.677Z,77.50
2018-01-16T06:00:16.029Z,77.70
2018-01-16T06:02:43.584Z,77.60
2018-01-16T06:05:11.123Z,77.70
2018-01-16T06:07:38.903Z,77.80
2018-01-16T06:10:06.432Z,77.80
2018-01-16T06:12:34.006Z,77.80
2018-01-16T06:15:01.650Z,77.70
2018-01-16T06:17:29.233Z,77.70
2018-01-16T06:19:56.770Z,77.60
2018-01-16T06:22:24.362Z,77.90
2018-01-16T06:24:51.914Z,77.90
2018-01-16T06:27:20.187Z,78.00
2018-01-16T06:29:47.785Z,78.40
2018-01-16T06:32:15.496Z,78.40
2018-01-16T06:34:43.069Z,78.80
2018-01-16T06:37:10.608Z,78.70
2018-01-16T06:39:38.489Z,78.50
2018-01-16T06:42:06.002Z,78.80
2018-01-16T06:44:34.273Z,78.60
2018-01-16T06:47:02.645Z,78.70
2018-01-16T06:49:30.188Z,78.70
2018-01-16T06:51:57.764Z,78.80
2018-01-16T06:54:27.106Z,78.70
2018-01-16T06:56:54.673Z,78.70
2018-01-16T06:59:22.214Z,78.50
2018-01-16T07:01:50.103Z,78.70
2018-01-16T07:04:17.638Z,78.80
2018-01-16T07:06:45.187Z,79.30
2018-01-16T07:09:12.761Z,79.30
2018-01-16T07:11:40.294Z,79.30
2018-01-16T07:14:07.865Z,79.30
2018-01-16T07:16:35.389Z,79.40
2018-01-16T07:19:02.965Z,79.40
2018-01-16T07:21:31.263Z,79.40
2018-01-16T07:23:58.971Z,79.40
2018-01-16T07:26:26.512Z,79.40
2018-01-16T07:28:54.062Z,79.50
2018-01-16T07:31:21.817Z,79.50
2018-01-16T07:33:49.349Z,79.50
2018-01-16T07:36:17.689Z,79.40
2018-01-16T07:38:45.216Z,79.40
2018-01-16T07:41:12.940Z,79.50
2018-01-16T07:43:41.240Z,79.40
2018-01-16T07:46:08.784Z,79.40
2018-01-16T07:48:38.135Z,79.40
2018-01-16T07:51:05.770Z,79.30
2018-01-16T07:53:33.346Z,79.30
2018-01-16T07:56:00.889Z,79.40
2018-01-16T07:58:28.769Z,79.40
2018-01-16T08:00:56.310Z,79.40
2018-01-16T08:03:23.895Z,79.30
2018-01-16T08:05:51.509Z,79.70
2018-01-16T08:08:19.030Z,80.00
2018-01-16T08:10:46.630Z,79.80
2018-01-16T08:13:14.162Z,79.70
2018-01-16T08:15:41.749Z,79.80
2018-01-16T08:18:09.295Z,79.60
2018-01-16T08:20:37.597Z,79.90
2018-01-16T08:23:05.214Z,79.90
2018-01-16T08:25:32.761Z,80.20
2018-01-16T08:28:00.332Z,79.80
2018-01-16T08:30:27.968Z,79.90
2018-01-16T08:32:55.553Z,79.90
2018-01-16T08:35:24.833Z,80.60
2018-01-16T08:37:52.398Z,80.00
2018-01-16T08:40:20.134Z,80.00
2018-01-16T08:42:47.709Z,80.10
2018-01-16T08:45:15.486Z,80.10
2018-01-16T08:47:43.032Z,80.20
2018-01-16T08:50:10.628Z,80.10
2018-01-16T08:52:38.230Z,80.20
2018-01-16T08:55:05.769Z,80.20
2018-01-16T08:57:33.340Z,80.20
2018-01-16T09:00:00.885Z,80.20
2018-01-16T09:02:28.527Z,80.20
2018-01-16T09:04:56.085Z,80.20
2018-01-16T09:07:24.420Z,80.30
2018-01-16T09:09:52.019Z,80.00
2018-01-16T09:12:19.572Z,79.80
2018-01-16T09:14:47.198Z,79.40
2018-01-16T09:17:14.758Z,79.10
2018-01-16T09:19:42.299Z,79.00
2018-01-16T09:22:09.880Z,78.80
2018-01-16T09:24:37.441Z,78.80
2018-01-16T09:27:05.214Z,78.60
2018-01-16T09:29:32.772Z,78.50
2018-01-16T09:32:00.374Z,78.40
2018-01-16T09:34:29.289Z,78.40
2018-01-16T09:36:56.843Z,78.40
2018-01-16T09:39:24.421Z,78.40
2018-01-16T09:41:51.969Z,78.70
2018-01-16T09:44:19.546Z,78.80
2018-01-16T09:46:48.024Z,78.90
2018-01-16T09:49:15.596Z,79.10
2018-01-16T09:51:43.150Z,79.60
2018-01-16T09:54:10.696Z,80.30
2018-01-16T09:56:38.306Z,81.00
2018-01-16T09:59:05.850Z,82.20
2018-01-16T10:01:33.714Z,82.60
2018-01-16T10:04:01.756Z,82.00
2018-01-16T10:06:29.334Z,83.20
2018-01-16T10:08:56.928Z,83.30
2018-01-16T10:11:24.469Z,83.40
2018-01-16T10:13:52.065Z,83.20
2018-01-16T10:16:20.397Z,84.00
2018-01-16T10:18:48.005Z,84.00
2018-01-16T10:21:16.316Z,84.00
2018-01-16T10:23:43.908Z,84.00
2018-01-16T10:26:11.461Z,84.00
2018-01-16T10:28:39.005Z,83.70
2018-01-16T10:31:06.582Z,83.80
2018-01-16T10:33:34.317Z,83.70
2018-01-16T10:36:02.062Z,83.50
2018-01-16T10:38:30.383Z,83.10
2018-01-16T10:40:57.982Z,83.10
2018-01-16T10:43:26.318Z,82.90
2018-01-16T10:45:53.875Z,82.90
2018-01-16T10:48:21.478Z,82.80
2018-01-16T10:50:49.048Z,82.30
2018-01-16T10:53:17.416Z,81.80
2018-01-16T10:55:44.988Z,81.90
2018-01-16T10:58:13.538Z,82.10
2018-01-16T11:00:41.319Z,82.10
2018-01-16T11:03:09.640Z,82.00
2018-01-16T11:05:37.235Z,81.90
2018-01-16T11:08:04.808Z,82.00
2018-01-16T11:10:32.398Z,82.00
2018-01-16T11:12:59.941Z,81.90
2018-01-16T11:15:27.556Z,82.00
2018-01-16T11:17:55.111Z,82.30
2018-01-16T11:20:22.671Z,82.50
2018-01-16T11:22:50.309Z,83.60
2018-01-16T11:25:17.899Z,82.60
2018-01-16T11:27:45.494Z,82.70
2018-01-16T11:30:13.153Z,82.80
2018-01-16T11:32:40.743Z,82.90
2018-01-16T11:35:08.298Z,82.70
2018-01-16T11:37:35.846Z,83.00
2018-01-16T11:40:04.217Z,82.80
2018-01-16T11:42:31.825Z,82.70
2018-01-16T11:44:59.719Z,82.70
2018-01-16T11:47:27.272Z,82.80
2018-01-16T11:49:54.862Z,82.60
2018-01-16T11:52:22.431Z,82.30
2018-01-16T11:54:50.867Z,82.20
2018-01-16T11:57:18.427Z,82.10
2018-01-16T11:59:45.986Z,81.70
2018-01-16T12:02:13.642Z,81.30
2018-01-16T12:04:41.241Z,81.20
2018-01-16T12:07:09.791Z,81.40
2018-01-16T12:09:37.356Z,81.30
2018-01-16T12:12:05.212Z,81.30
2018-01-16T12:14:32.778Z,81.30
2018-01-16T12:17:00.467Z,81.30
2018-01-16T12:19:28.067Z,81.20
2018-01-16T12:21:55.820Z,81.10
2018-01-16T12:24:23.458Z,81.10
2018-01-16T12:26:51.351Z,81.10
2018-01-16T12:29:18.982Z,81.20
2018-01-16T12:31:46.540Z,81.20
2018-01-16T12:34:15.177Z,81.60
2018-01-16T12:36:42.751Z,81.60
2018-01-16T12:39:10.340Z,81.60
2018-01-16T12:41:37.942Z,81.00
2018-01-16T12:44:05.499Z,81.40
2018-01-16T12:46:33.103Z,81.50
2018-01-16T12:49:00.648Z,81.00
2018-01-16T12:51:28.239Z,81.30
2018-01-16T12:53:55.828Z,81.20
2018-01-16T12:56:23.396Z,81.10
2018-01-16T12:58:51.001Z,80.50
2018-01-16T13:01:18.567Z,80.40
2018-01-16T13:03:46.318Z,80.30
2018-01-16T13:06:13.907Z,80.00
2018-01-16T13:08:42.268Z,79.80
2018-01-16T13:11:09.827Z,79.70
2018-01-16T13:13:37.418Z,80.10
2018-01-16T13:16:05.194Z,80.40
2018-01-16T13:18:32.769Z,80.60
2018-01-16T13:21:00.356Z,80.70
2018-01-16T13:23:27.901Z,80.90
2018-01-16T13:25:55.807Z,81.40
2018-01-16T13:28:23.381Z,81.40
2018-01-16T13:30:51.129Z,81.40
2018-01-16T13:33:18.688Z,82.90
2018-01-16T13:35:46.264Z,83.70
2018-01-16T13:38:14.686Z,84.70
2018-01-16T13:40:43.309Z,84.60
2018-01-16T13:43:10.883Z,85.30
2018-01-16T13:45:39.206Z,85.20
2018-01-16T13:48:06.924Z,85.20
2018-01-16T13:50:34.486Z,84.40
2018-01-16T13:53:02.860Z,90.30
2018-01-16T13:55:30.428Z,90.40
2018-01-16T13:57:58.750Z,91.60
2018-01-16T14:00:26.321Z,91.60
2018-01-16T14:02:53.860Z,92.10
2018-01-16T14:05:21.444Z,92.50
2018-01-16T14:07:49.195Z,93.00
2018-01-16T14:10:16.785Z,93.30
2018-01-16T14:12:44.335Z,93.80
2018-01-16T14:15:11.884Z,94.00
2018-01-16T14:17:39.482Z,94.50
2018-01-16T14:20:07.037Z,94.50
2018-01-16T14:22:35.409Z,94.50
2018-01-16T14:25:02.971Z,94.50
2018-01-16T14:27:31.378Z,94.80
2018-01-16T14:29:58.946Z,94.50
2018-01-16T14:32:26.511Z,94.20
2018-01-16T14:34:54.106Z,94.20
2018-01-16T14:37:21.722Z,94.00
2018-01-16T14:39:49.418Z,93.90
2018-01-16T14:42:17.034Z,93.90
2018-01-16T14:44:45.577Z,94.20
2018-01-16T14:47:13.167Z,94.20
2018-01-16T14:49:41.545Z,94.30
2018-01-16T14:52:09.108Z,94.30
2018-01-16T14:54:37.445Z,94.50
2018-01-16T14:57:05.057Z,94.50
2018-01-16T14:59:32.630Z,94.50
2018-01-16T15:02:00.257Z,94.50
2018-01-16T15:04:27.844Z,94.50
2018-01-16T15:06:55.394Z,94.60
2018-01-16T15:09:23.022Z,93.80
2018-01-16T15:11:50.609Z,92.50
2018-01-16T15:14:18.222Z,92.80
2018-01-16T15:16:45.808Z,93.60
2018-01-16T15:19:13.550Z,94.20
2018-01-16T15:21:41.107Z,94.30
2018-01-16T15:24:08.953Z,94.20
2018-01-16T15:26:36.531Z,94.10
2018-01-16T15:29:04.230Z,94.40
2018-01-16T15:31:32.616Z,94.50
2018-01-16T15:34:01.652Z,94.30
2018-01-16T15:36:29.437Z,94.30
2018-01-16T15:38:56.987Z,94.50
2018-01-16T15:41:24.545Z,94.30
2018-01-16T15:43:52.113Z,94.50
2018-01-16T15:46:19.666Z,94.60
2018-01-16T15:48:47.261Z,94.40
2018-01-16T15:51:15.167Z,94.50
2018-01-16T15:53:42.820Z,94.60
2018-01-16T15:56:10.395Z,94.60
2018-01-16T15:58:37.954Z,94.80
2018-01-16T16:01:05.685Z,94.80
2018-01-16T16:03:34.015Z,94.70
2018-01-16T16:06:01.641Z,94.70
2018-01-16T16:08:29.187Z,94.80
2018-01-16T16:10:56.793Z,94.70
2018-01-16T16:13:24.344Z,94.80
2018-01-16T16:15:51.901Z,94.90
2018-01-16T16:18:19.525Z,94.90
2018-01-16T16:20:47.842Z,95.00
2018-01-16T16:23:15.415Z,95.00
2018-01-16T16:25:42.963Z,95.00
2018-01-16T16:28:10.577Z,95.10
2018-01-16T16:30:38.884Z,95.10
2018-01-16T16:33:06.519Z,95.20
2018-01-16T16:35:34.903Z,95.00
2018-01-16T16:38:02.452Z,95.00
2018-01-16T16:40:30.788Z,95.20
2018-01-16T16:42:58.344Z,95.20
2018-01-16T16:45:25.942Z,95.20
2018-01-16T16:47:53.536Z,95.10
2018-01-16T16:50:21.142Z,95.20
2018-01-16T16:52:48.686Z,95.20
2018-01-16T16:55:16.485Z,95.00
2018-01-16T16:57:44.858Z,95.10
2018-01-16T17:00:12.396Z,95.10
2018-01-16T17:02:39.970Z,95.00
2018-01-16T17:05:07.524Z,95.00
2018-01-16T17:07:35.590Z,95.00
2018-01-16T17:10:03.352Z,94.90
2018-01-16T17:12:30.880Z,94.90
2018-01-16T17:14:58.534Z,94.80
2018-01-16T17:17:26.100Z,94.90
2018-01-16T17:19:53.721Z,94.90
2018-01-16T17:22:22.835Z,95.00
2018-01-16T17:24:50.462Z,95.00
2018-01-16T17:27:18.001Z,95.10
2018-01-16T17:29:45.558Z,95.10
2018-01-16T17:32:13.136Z,95.10
2018-01-16T17:34:40.924Z,95.00
2018-01-16T17:37:08.460Z,94.80
2018-01-16T17:39:36.066Z,94.70
2018-01-16T17:42:03.612Z,94.70
2018-01-16T17:44:31.656Z,94.70
2018-01-16T17:46:59.413Z,94.70
2018-01-16T17:49:26.982Z,94.80
2018-01-16T17:51:54.833Z,94.70
2018-01-16T17:54:22.401Z,94.60
2018-01-16T17:56:49.984Z,94.70
2018-01-16T17:59:18.311Z,94.60
2018-01-16T18:01:45.925Z,94.60
2018-01-16T18:04:14.226Z,94.70
2018-01-16T18:06:41.864Z,94.70
2018-01-16T18:09:10.254Z,95.00
2018-01-16T18:11:38.627Z,94.70
2018-01-16T18:14:07.345Z,94.70
2018-01-16T18:16:34.908Z,94.70
2018-01-16T18:19:02.593Z,94.70
2018-01-16T18:21:30.165Z,94.80
2018-01-16T18:23:57.785Z,94.80
2018-01-16T18:26:25.464Z,94.90
2018-01-16T18:28:53.019Z,94.90
2018-01-16T18:31:20.603Z,94.80
2018-01-16T18:33:48.189Z,94.90
2018-01-16T18:36:16.599Z,94.90
2018-01-16T18:38:44.225Z,94.90
2018-01-16T18:41:11.902Z,94.90
2018-01-16T18:43:39.460Z,94.90
2018-01-16T18:46:07.084Z,94.90
2018-01-16T18:48:34.716Z,94.90
2018-01-16T18:51:02.269Z,94.90
2018-01-16T18:53:29.896Z,94.90
2018-01-16T18:55:58.390Z,95.00
2018-01-16T18:58:26.009Z,95.00
2018-01-16T19:00:53.584Z,94.90
2018-01-16T19:03:21.243Z,94.90
2018-01-16T19:05:49.161Z,94.90
2018-01-16T19:08:16.802Z,94.80
2018-01-16T19:10:44.402Z,94.80
2018-01-16T19:13:11.975Z,94.80
2018-01-16T19:15:39.640Z,94.70
2018-01-16T19:18:07.198Z,94.80
2018-01-16T19:20:34.792Z,94.80
2018-01-16T19:23:03.125Z,94.80
2018-01-16T19:25:30.744Z,94.70
2018-01-16T19:27:58.290Z,94.80
2018-01-16T19:30:25.864Z,94.80
2018-01-16T19:32:53.443Z,94.80
2018-01-16T19:35:20.988Z,94.70
2018-01-16T19:37:48.584Z,94.70
2018-01-16T19:40:16.160Z,94.80
2018-01-16T19:42:43.792Z,94.80
2018-01-16T19:45:11.376Z,94.80
2018-01-16T19:47:39.109Z,94.80
2018-01-16T19:50:06.675Z,94.80
2018-01-16T19:52:34.217Z,94.80
2018-01-16T19:55:01.869Z,94.80
2018-01-16T19:57:29.408Z,94.80
2018-01-16T19:59:57.013Z,94.90
2018-01-16T20:02:24.589Z,94.80
2018-01-16T20:04:52.264Z,94.90
2018-01-16T20:07:20.464Z,94.80
2018-01-16T20:09:48.090Z,94.80
2018-01-16T20:12:15.645Z,94.80
2018-01-16T20:14:43.220Z,94.80
2018-01-16T20:17:10.797Z,94.80
2018-01-16T20:19:39.141Z,94.80
2018-01-16T20:22:06.754Z,94.80
2018-01-16T20:24:34.315Z,94.80
2018-01-16T20:27:01.909Z,94.80
2018-01-16T20:29:29.583Z,94.80
2018-01-16T20:31:57.175Z,94.70
2018-01-16T20:34:25.538Z,94.70
2018-01-16T20:36:53.215Z,94.70
2018-01-16T20:39:20.809Z,94.70
2018-01-16T20:41:48.394Z,94.80
2018-01-16T20:44:15.973Z,94.70
2018-01-16T20:46:43.553Z,94.70
2018-01-16T20:49:11.925Z,94.70
2018-01-16T20:51:39.521Z,94.70
2018-01-16T20:54:07.061Z,94.70
2018-01-16T20:56:34.668Z,94.80
2018-01-16T20:59:02.288Z,94.80
2018-01-16T21:01:29.888Z,94.70
2018-01-16T21:03:57.449Z,94.70
2018-01-16T21:06:25.044Z,94.70
2018-01-16T21:08:52.604Z,94.70
2018-01-16T21:11:21.665Z,94.80
2018-01-16T21:13:49.249Z,94.80
2018-01-16T21:16:16.803Z,94.80
2018-01-16T21:18:44.398Z,94.80
2018-01-16T21:21:12.707Z,94.80
2018-01-16T21:23:40.281Z,94.80
2018-01-16T21:26:07.894Z,94.80
2018-01-16T21:28:35.455Z,94.80
2018-01-16T21:31:03.798Z,94.80
2018-01-16T21:33:31.346Z,94.80
2018-01-16T21:35:58.945Z,94.80
2018-01-16T21:38:26.502Z,94.80
2018-01-16T21:40:54.894Z,94.90
2018-01-16T21:43:22.447Z,94.90
2018-01-16T21:45:50.756Z,94.90
2018-01-16T21:48:18.374Z,94.90
2018-01-16T21:50:46.706Z,95.20
2018-01-16T21:53:14.321Z,94.90
2018-01-16T21:55:42.636Z,94.90
2018-01-16T21:58:10.231Z,94.90
2018-01-16T22:00:37.788Z,94.90
2018-01-16T22:03:06.851Z,94.80
2018-01-16T22:05:34.491Z,94.80
2018-01-16T22:08:02.241Z,94.80
2018-01-16T22:10:29.895Z,94.80
2018-01-16T22:12:58.236Z,94.80
2018-01-16T22:15:25.927Z,94.80
2018-01-16T22:17:53.526Z,94.80
2018-01-16T22:20:21.069Z,94.80
2018-01-16T22:22:48.661Z,94.80
2018-01-16T22:25:16.234Z,94.80
2018-01-16T22:27:43.934Z,94.80
2018-01-16T22:30:12.237Z,94.90
2018-01-16T22:32:39.803Z,94.90
2018-01-16T22:35:07.397Z,94.90
2018-01-16T22:37:35.061Z,94.90
2018-01-16T22:40:02.671Z,94.90
2018-01-16T22:42:30.228Z,94.90
2018-01-16T22:44:58.017Z,94.90
2018-01-16T22:47:25.645Z,94.80
2018-01-16T22:49:54.019Z,94.90
2018-01-16T22:52:21.575Z,94.90
2018-01-16T22:54:49.901Z,94.90
2018-01-16T22:57:17.498Z,94.90
2018-01-16T22:59:45.041Z,95.00
2018-01-16T23:02:12.755Z,94.90
2018-01-16T23:04:40.355Z,95.00
2018-01-16T23:07:07.924Z,94.90
2018-01-16T23:09:35.551Z,94.90
2018-01-16T23:12:03.101Z,94.90
2018-01-16T23:14:30.701Z,94.90
2018-01-16T23:16:58.246Z,94.90
2018-01-16T23:19:25.808Z,94.90
2018-01-16T23:21:53.449Z,94.90
2018-01-16T23:24:21.033Z,94.80
2018-01-16T23:26:48.628Z,94.80
2018-01-16T23:29:16.946Z,94.80
2018-01-16T23:31:44.539Z,94.80
2018-01-16T23:34:12.229Z,94.80
2018-01-16T23:36:40.549Z,94.90
2018-01-16T23:39:08.209Z,94.80
2018-01-16T23:41:35.764Z,94.80
2018-01-16T23:44:03.341Z,94.80
2018-01-16T23:46:30.893Z,94.80
2018-01-16T23:48:58.884Z,94.70
2018-01-16T23:51:26.441Z,94.70
2018-01-16T23:53:53.995Z,94.70
2018-01-16T23:56:21.599Z,94.80
2018-01-16T23:58:49.160Z,94.80
